createdAt,value
2022-12-17T00:00:54.165Z,23.92
2022-12-17T00:05:16.106Z,22.40
2022-12-17T00:09:35.867Z,23.38
2022-12-17T00:13:55.926Z,19.50
2022-12-17T00:18:24.488Z,18.65
2022-12-17T00:22:44.449Z,21.92
2022-12-17T00:27:04.487Z,21.60
2022-12-17T00:31:41.128Z,24.63
2022-12-17T00:36:01.003Z,21.70
2022-12-17T00:40:20.754Z,20.58
2022-12-17T00:44:40.647Z,25.02
2022-12-17T00:49:00.646Z,20.80
2022-12-17T00:53:20.709Z,21.13
2022-12-17T00:57:40.583Z,17.75
2022-12-17T01:02:17.589Z,21.73
2022-12-17T01:06:37.679Z,22.17
2022-12-17T01:10:57.996Z,20.48
2022-12-17T01:15:17.898Z,19.70
2022-12-17T01:19:38.371Z,20.00
2022-12-17T01:24:15.321Z,19.75
2022-12-17T01:28:43.245Z,20.65
2022-12-17T01:33:03.157Z,20.98
2022-12-17T01:37:23.154Z,18.55
2022-12-17T01:41:43.298Z,17.88
2022-12-17T01:46:06.120Z,24.48
2022-12-17T01:50:26.538Z,18.23
2022-12-17T01:54:46.442Z,21.95
2022-12-17T01:59:06.435Z,19.38
2022-12-17T02:03:35.062Z,21.58
2022-12-17T02:08:14.356Z,17.25
2022-12-17T02:12:47.076Z,24.63
2022-12-17T02:17:09.752Z,23.42
2022-12-17T02:21:31.104Z,19.35
2022-12-17T02:26:09.701Z,20.67
2022-12-17T02:30:30.022Z,22.17
2022-12-17T02:34:49.813Z,17.92
2022-12-17T02:39:09.598Z,23.02
2022-12-17T02:43:30.026Z,20.77
2022-12-17T02:47:49.961Z,17.65
2022-12-17T02:52:10.022Z,18.85
2022-12-17T02:56:29.838Z,17.38
2022-12-17T03:00:54.119Z,15.95
2022-12-17T03:05:42.882Z,18.73
2022-12-17T03:09:53.644Z,21.35
2022-12-17T03:14:13.430Z,18.10
2022-12-17T03:18:33.455Z,19.77
2022-12-17T03:22:53.649Z,16.67
2022-12-17T03:27:13.726Z,18.90
2022-12-17T03:31:33.774Z,18.40
2022-12-17T03:35:53.602Z,18.45
2022-12-17T03:40:13.521Z,22.15
2022-12-17T03:44:33.222Z,21.40
2022-12-17T03:48:53.453Z,21.88
2022-12-17T03:53:13.496Z,18.38
2022-12-17T03:57:33.695Z,19.38
2022-12-17T04:01:53.825Z,18.67
2022-12-17T04:06:13.684Z,15.65
2022-12-17T04:10:33.636Z,17.25
2022-12-17T04:14:53.639Z,15.82
2022-12-17T04:19:14.042Z,20.13
2022-12-17T04:23:34.324Z,16.50
2022-12-17T04:27:54.665Z,17.63
2022-12-17T04:32:14.803Z,17.00
2022-12-17T04:36:34.968Z,18.30
2022-12-17T04:40:54.736Z,17.67
2022-12-17T04:45:14.585Z,16.67
2022-12-17T04:49:35.523Z,18.25
2022-12-17T04:53:55.701Z,19.50
2022-12-17T04:58:21.413Z,21.27
2022-12-17T05:02:43.023Z,19.83
2022-12-17T05:07:03.243Z,22.80
2022-12-17T05:11:24.185Z,19.17
2022-12-17T05:15:48.333Z,20.23
2022-12-17T05:20:11.255Z,20.95
2022-12-17T05:24:31.045Z,30.60
2022-12-17T05:28:51.194Z,23.20
2022-12-17T05:33:18.957Z,23.95
2022-12-17T05:37:39.077Z,32.42
2022-12-17T05:41:59.051Z,56.90
2022-12-17T05:46:19.447Z,85.00
2022-12-17T05:50:39.422Z,60.08
2022-12-17T05:54:59.188Z,62.00
2022-12-17T05:59:18.948Z,42.67
2022-12-17T06:03:39.387Z,61.10
2022-12-17T06:07:59.733Z,46.97
2022-12-17T06:12:37.165Z,48.45
2022-12-17T06:16:56.895Z,43.90
2022-12-17T06:21:16.718Z,44.20
2022-12-17T06:25:36.555Z,39.50
2022-12-17T06:29:56.363Z,44.30
2022-12-17T06:34:16.452Z,47.90
2022-12-17T06:38:36.460Z,43.95
2022-12-17T06:42:56.524Z,38.08
2022-12-17T06:47:16.592Z,50.63
2022-12-17T06:51:36.724Z,44.75
2022-12-17T06:55:56.380Z,44.03
2022-12-17T07:00:16.242Z,40.00
2022-12-17T07:04:36.714Z,41.88
2022-12-17T07:08:56.782Z,40.22
2022-12-17T07:13:26.173Z,43.75
2022-12-17T07:17:46.184Z,38.28
2022-12-17T07:22:06.400Z,39.22
2022-12-17T07:26:26.167Z,40.30
2022-12-17T07:30:45.963Z,41.45
2022-12-17T07:35:06.000Z,41.40
2022-12-17T07:39:25.812Z,53.28
2022-12-17T07:43:49.666Z,45.30
2022-12-17T07:48:13.050Z,40.95
2022-12-17T07:52:33.314Z,44.22
2022-12-17T07:56:53.210Z,37.38
2022-12-17T08:01:13.779Z,37.88
2022-12-17T08:05:33.753Z,38.17
2022-12-17T08:09:53.524Z,35.92
2022-12-17T08:14:14.202Z,43.72
2022-12-17T08:18:35.268Z,43.72
2022-12-17T08:22:56.622Z,43.17
2022-12-17T08:27:17.094Z,38.30
2022-12-17T08:31:38.854Z,41.95
2022-12-17T08:35:59.190Z,43.92
2022-12-17T08:40:19.748Z,45.53
2022-12-17T08:44:41.420Z,47.30
2022-12-17T08:49:01.688Z,60.38
2022-12-17T08:53:34.682Z,48.05
2022-12-17T08:57:55.460Z,40.88
2022-12-17T09:02:15.944Z,41.97
2022-12-17T09:06:39.292Z,46.08
2022-12-17T09:11:05.097Z,50.92
2022-12-17T09:15:25.664Z,48.45
2022-12-17T09:19:46.214Z,42.97
2022-12-17T09:24:06.495Z,36.45
2022-12-17T09:28:26.802Z,42.55
2022-12-17T09:32:47.926Z,42.80
2022-12-17T09:37:09.644Z,35.35
2022-12-17T09:41:55.585Z,45.25
2022-12-17T09:46:26.320Z,39.30
2022-12-17T09:50:49.247Z,45.97
2022-12-17T09:55:11.169Z,39.50
2022-12-17T09:59:52.609Z,38.58
2022-12-17T10:04:14.264Z,39.97
2022-12-17T10:08:38.492Z,36.92
2022-12-17T10:12:58.862Z,40.17
2022-12-17T10:17:19.848Z,45.22
2022-12-17T10:21:40.172Z,39.65
2022-12-17T10:26:13.929Z,33.88
2022-12-17T10:31:02.225Z,37.85
2022-12-17T10:35:30.964Z,34.92
2022-12-17T10:39:51.660Z,35.60
2022-12-17T10:44:12.152Z,37.90
2022-12-17T10:48:39.595Z,35.22
2022-12-17T10:53:03.563Z,37.67
2022-12-17T10:57:25.757Z,40.30
2022-12-17T11:01:47.656Z,37.72
2022-12-17T11:06:16.487Z,35.92
2022-12-17T11:10:43.169Z,36.70
2022-12-17T11:15:09.323Z,38.13
2022-12-17T11:19:39.033Z,40.73
2022-12-17T11:24:01.742Z,42.25
2022-12-17T11:28:41.749Z,45.13
2022-12-17T11:33:38.192Z,40.15
2022-12-17T11:38:34.642Z,42.88
2022-12-17T11:47:56.153Z,42.10
2022-12-17T11:52:34.587Z,43.70
2022-12-17T11:57:01.303Z,52.50
2022-12-17T12:01:27.766Z,43.95
2022-12-17T12:06:12.665Z,49.17
2022-12-17T12:10:45.458Z,37.03
2022-12-17T12:15:16.659Z,39.60
2022-12-17T12:19:49.798Z,42.30
2022-12-17T12:24:36.986Z,43.55
2022-12-17T12:34:06.257Z,43.45
2022-12-17T12:38:46.456Z,45.03
2022-12-17T12:43:18.540Z,42.15
2022-12-17T12:48:16.366Z,47.35
2022-12-17T12:52:40.174Z,46.80
2022-12-17T12:57:01.607Z,49.40
2022-12-17T13:01:22.322Z,53.47
2022-12-17T13:05:33.575Z,56.30
2022-12-17T13:09:48.655Z,49.78
2022-12-17T13:13:56.915Z,61.05
2022-12-17T13:18:05.405Z,50.85
2022-12-17T13:22:23.313Z,58.65
2022-12-17T13:26:45.593Z,56.75
2022-12-17T13:30:47.350Z,54.88
2022-12-17T13:35:12.742Z,59.38
2022-12-17T13:39:40.511Z,59.90
2022-12-17T13:43:48.797Z,61.88
2022-12-17T13:47:55.726Z,63.28
2022-12-17T13:52:06.449Z,70.18
2022-12-17T13:56:11.199Z,60.55
2022-12-17T14:00:27.592Z,56.60
2022-12-17T14:04:30.284Z,62.53
2022-12-17T14:08:32.645Z,63.25
2022-12-17T14:12:35.479Z,72.95
2022-12-17T14:16:37.380Z,67.18
2022-12-17T14:20:40.267Z,69.25
2022-12-17T14:24:41.705Z,69.55
2022-12-17T14:28:51.264Z,70.40
2022-12-17T14:32:52.829Z,60.55
2022-12-17T14:36:57.140Z,66.40
2022-12-17T14:41:25.800Z,66.32
2022-12-17T14:45:28.516Z,72.97
2022-12-17T14:49:29.919Z,78.50
2022-12-17T14:53:31.320Z,71.72
2022-12-17T14:57:32.780Z,73.85
2022-12-17T15:01:34.825Z,74.53
2022-12-17T15:05:36.710Z,82.20
2022-12-17T15:09:38.237Z,71.63
2022-12-17T15:13:39.838Z,70.22
2022-12-17T15:17:41.878Z,75.32
2022-12-17T15:21:43.452Z,75.00
2022-12-17T15:25:49.438Z,81.30
2022-12-17T15:29:50.780Z,74.97
2022-12-17T15:33:52.180Z,76.50
2022-12-17T15:37:53.658Z,66.60
2022-12-17T15:42:14.697Z,73.70
2022-12-17T15:46:16.242Z,68.75
2022-12-17T15:50:18.547Z,68.55
2022-12-17T15:54:20.067Z,70.15
2022-12-17T15:58:21.462Z,80.43
2022-12-17T16:02:23.063Z,68.82
2022-12-17T16:06:24.617Z,69.97
2022-12-17T16:10:29.772Z,66.80
2022-12-17T16:14:31.312Z,65.60
2022-12-17T16:18:32.966Z,62.95
2022-12-17T16:22:34.424Z,67.68
2022-12-17T16:26:35.807Z,66.95
2022-12-17T16:30:37.205Z,52.22
2022-12-17T16:34:38.616Z,55.35
2022-12-17T16:38:48.183Z,56.95
2022-12-17T16:42:49.541Z,50.25
2022-12-17T16:46:52.304Z,56.50
2022-12-17T16:50:53.977Z,52.95
2022-12-17T16:54:55.522Z,55.00
2022-12-17T16:58:57.108Z,52.05
2022-12-17T17:02:58.731Z,56.65
2022-12-17T17:07:00.253Z,55.15
2022-12-17T17:11:22.855Z,57.28
2022-12-17T17:15:24.217Z,51.17
2022-12-17T17:19:25.619Z,59.28
2022-12-17T17:23:26.989Z,48.80
2022-12-17T17:27:28.427Z,59.40
2022-12-17T17:32:09.163Z,53.75
2022-12-17T17:35:54.214Z,52.92
2022-12-17T17:39:56.285Z,48.38
2022-12-17T17:44:00.329Z,55.67
2022-12-17T17:48:01.883Z,50.72
2022-12-17T17:52:11.576Z,56.40
2022-12-17T17:56:21.907Z,57.58
2022-12-17T18:00:24.677Z,48.00
2022-12-17T18:04:26.974Z,51.80
2022-12-17T18:08:30.822Z,53.80
2022-12-17T18:12:51.191Z,67.07
2022-12-17T18:16:53.154Z,56.28
2022-12-17T18:21:07.040Z,53.83
2022-12-17T18:25:08.987Z,55.22
2022-12-17T18:29:12.606Z,58.78
2022-12-17T18:33:14.488Z,64.22
2022-12-17T18:37:16.375Z,53.72
2022-12-17T18:41:39.014Z,66.50
2022-12-17T18:45:42.110Z,71.28
2022-12-17T18:49:45.456Z,83.25
2022-12-17T18:53:47.049Z,73.68
2022-12-17T18:57:48.580Z,76.78
2022-12-17T19:01:50.661Z,70.82
2022-12-17T19:05:54.307Z,84.13
2022-12-17T19:09:55.961Z,64.28
2022-12-17T19:13:57.405Z,65.43
2022-12-17T19:17:58.763Z,69.45
2022-12-17T19:22:00.904Z,72.75
2022-12-17T19:26:21.977Z,72.38
2022-12-17T19:30:23.369Z,61.55
2022-12-17T19:34:24.735Z,51.78
2022-12-17T19:38:26.125Z,52.20
2022-12-17T19:42:33.383Z,60.35
2022-12-17T19:46:38.369Z,61.95
2022-12-17T19:50:41.637Z,53.03
2022-12-17T19:54:43.604Z,53.25
2022-12-17T19:58:46.810Z,46.75
2022-12-17T20:02:48.551Z,55.20
2022-12-17T20:06:50.356Z,48.70
2022-12-17T20:10:52.052Z,50.38
2022-12-17T20:14:53.811Z,49.00
2022-12-17T20:18:55.803Z,51.03
2022-12-17T20:22:58.836Z,46.83
2022-12-17T20:27:01.081Z,50.30
2022-12-17T20:31:03.732Z,53.65
2022-12-17T20:35:12.623Z,45.47
2022-12-17T20:39:14.047Z,50.25
2022-12-17T20:43:15.566Z,58.75
2022-12-17T20:47:17.181Z,54.40
2022-12-17T20:51:21.429Z,51.53
2022-12-17T20:55:29.417Z,41.92
2022-12-17T20:59:32.659Z,51.53
2022-12-17T21:03:34.919Z,45.50
2022-12-17T21:07:36.756Z,50.85
2022-12-17T21:11:39.427Z,51.75
2022-12-17T21:15:40.822Z,57.58
2022-12-17T21:19:42.622Z,57.67
2022-12-17T21:23:46.468Z,52.60
2022-12-17T21:27:48.218Z,54.42
2022-12-17T21:31:52.200Z,60.53
2022-12-17T21:36:07.995Z,51.28
2022-12-17T21:40:10.291Z,47.97
2022-12-17T21:44:13.867Z,51.55
2022-12-17T21:48:17.077Z,46.83
2022-12-17T21:52:18.608Z,59.17
2022-12-17T21:56:20.588Z,46.90
2022-12-17T22:00:22.467Z,47.35
2022-12-17T22:04:24.385Z,47.70
2022-12-17T22:08:25.843Z,41.15
2022-12-17T22:12:46.319Z,38.50
2022-12-17T22:16:49.357Z,54.40
2022-12-17T22:21:01.191Z,44.55
2022-12-17T22:25:07.833Z,45.17
2022-12-17T22:29:10.343Z,53.13
2022-12-17T22:34:09.840Z,46.58
2022-12-17T22:40:52.353Z,44.13
2022-12-17T22:44:38.906Z,38.85
2022-12-17T22:46:34.867Z,40.67
2022-12-17T22:50:45.623Z,41.20
2022-12-17T22:54:58.482Z,39.78
2022-12-17T22:59:00.175Z,44.75
2022-12-17T23:03:02.325Z,48.47
2022-12-17T23:07:03.851Z,48.28
2022-12-17T23:11:07.344Z,43.42
2022-12-17T23:15:09.063Z,41.17
2022-12-17T23:19:10.465Z,43.10
2022-12-17T23:23:11.871Z,35.75
2022-12-17T23:27:13.243Z,38.28
2022-12-17T23:31:17.654Z,37.45
2022-12-17T23:35:19.216Z,35.50
2022-12-17T23:39:20.691Z,35.33
2022-12-17T23:43:22.160Z,37.90
2022-12-17T23:47:23.527Z,27.15
2022-12-17T23:51:25.917Z,32.05
2022-12-17T23:55:27.272Z,33.78
2022-12-17T23:59:28.669Z,36.08
